sensor_id;sensor_type;location;lat;lon;timestamp;P1;durP1;ratioP1;P2;durP2;ratioP2
41903;SDS011;27586;51.124;4.182;2023-02-28T00:01:11;4.37;;;3.97;;
41903;SDS011;27586;51.124;4.182;2023-02-28T00:03:38;5.07;;;4.13;;
41903;SDS011;27586;51.124;4.182;2023-02-28T00:06:04;6.07;;;4.60;;
41903;SDS011;27586;51.124;4.182;2023-02-28T00:08:31;6.00;;;4.10;;
41903;SDS011;27586;51.124;4.182;2023-02-28T00:11:00;8.77;;;4.70;;
41903;SDS011;27586;51.124;4.182;2023-02-28T00:13:31;5.27;;;4.33;;
41903;SDS011;27586;51.124;4.182;2023-02-28T00:16:00;5.50;;;4.40;;
41903;SDS011;27586;51.124;4.182;2023-02-28T00:18:28;6.13;;;4.40;;
41903;SDS011;27586;51.124;4.182;2023-02-28T00:20:53;6.93;;;4.80;;
41903;SDS011;27586;51.124;4.182;2023-02-28T00:23:19;6.73;;;4.53;;
41903;SDS011;27586;51.124;4.182;2023-02-28T00:25:45;9.33;;;4.80;;
41903;SDS011;27586;51.124;4.182;2023-02-28T00:28:10;6.60;;;4.33;;
41903;SDS011;27586;51.124;4.182;2023-02-28T00:30:36;9.33;;;5.07;;
41903;SDS011;27586;51.124;4.182;2023-02-28T00:33:02;6.57;;;4.67;;
41903;SDS011;27586;51.124;4.182;2023-02-28T00:35:27;6.43;;;4.10;;
41903;SDS011;27586;51.124;4.182;2023-02-28T00:37:53;6.80;;;4.77;;
41903;SDS011;27586;51.124;4.182;2023-02-28T00:40:19;7.03;;;4.47;;
41903;SDS011;27586;51.124;4.182;2023-02-28T00:42:45;7.63;;;4.93;;
41903;SDS011;27586;51.124;4.182;2023-02-28T00:45:11;5.63;;;4.60;;
41903;SDS011;27586;51.124;4.182;2023-02-28T00:47:37;6.87;;;4.77;;
41903;SDS011;27586;51.124;4.182;2023-02-28T00:50:03;5.77;;;5.20;;
41903;SDS011;27586;51.124;4.182;2023-02-28T00:52:30;9.17;;;5.60;;
41903;SDS011;27586;51.124;4.182;2023-02-28T00:54:56;9.07;;;5.50;;
41903;SDS011;27586;51.124;4.182;2023-02-28T00:57:21;6.40;;;4.77;;
41903;SDS011;27586;51.124;4.182;2023-02-28T00:59:47;7.87;;;5.47;;
41903;SDS011;27586;51.124;4.182;2023-02-28T01:02:13;6.07;;;4.73;;
41903;SDS011;27586;51.124;4.182;2023-02-28T01:04:38;6.93;;;5.10;;
41903;SDS011;27586;51.124;4.182;2023-02-28T01:07:04;8.50;;;5.00;;
41903;SDS011;27586;51.124;4.182;2023-02-28T01:09:30;8.60;;;5.07;;
41903;SDS011;27586;51.124;4.182;2023-02-28T01:11:56;6.53;;;5.57;;
41903;SDS011;27586;51.124;4.182;2023-02-28T01:14:21;5.63;;;5.10;;
41903;SDS011;27586;51.124;4.182;2023-02-28T01:16:47;8.00;;;5.00;;
41903;SDS011;27586;51.124;4.182;2023-02-28T01:19:13;6.50;;;5.20;;
41903;SDS011;27586;51.124;4.182;2023-02-28T01:21:38;7.73;;;5.20;;
41903;SDS011;27586;51.124;4.182;2023-02-28T01:24:04;6.90;;;5.50;;
41903;SDS011;27586;51.124;4.182;2023-02-28T01:26:30;6.80;;;5.40;;
41903;SDS011;27586;51.124;4.182;2023-02-28T01:28:56;6.90;;;5.10;;
41903;SDS011;27586;51.124;4.182;2023-02-28T01:31:23;8.23;;;5.43;;
41903;SDS011;27586;51.124;4.182;2023-02-28T01:33:49;6.20;;;5.10;;
41903;SDS011;27586;51.124;4.182;2023-02-28T01:36:16;7.60;;;5.50;;
41903;SDS011;27586;51.124;4.182;2023-02-28T01:38:44;8.40;;;5.93;;
41903;SDS011;27586;51.124;4.182;2023-02-28T01:41:21;7.37;;;5.63;;
41903;SDS011;27586;51.124;4.182;2023-02-28T01:46:15;7.20;;;5.73;;
41903;SDS011;27586;51.124;4.182;2023-02-28T01:48:42;8.93;;;5.27;;
41903;SDS011;27586;51.124;4.182;2023-02-28T01:54:12;5.73;;;5.13;;
41903;SDS011;27586;51.124;4.182;2023-02-28T01:56:43;6.13;;;5.40;;
41903;SDS011;27586;51.124;4.182;2023-02-28T01:59:14;6.90;;;5.37;;
41903;SDS011;27586;51.124;4.182;2023-02-28T02:01:54;5.90;;;5.00;;
41903;SDS011;27586;51.124;4.182;2023-02-28T02:04:20;7.17;;;5.20;;
41903;SDS011;27586;51.124;4.182;2023-02-28T02:06:48;6.30;;;4.97;;
41903;SDS011;27586;51.124;4.182;2023-02-28T02:09:14;7.20;;;4.83;;
41903;SDS011;27586;51.124;4.182;2023-02-28T02:11:40;6.20;;;4.90;;
41903;SDS011;27586;51.124;4.182;2023-02-28T02:33:11;9.87;;;5.60;;
41903;SDS011;27586;51.124;4.182;2023-02-28T02:41:34;7.80;;;5.40;;
41903;SDS011;27586;51.124;4.182;2023-02-28T02:44:13;6.70;;;5.23;;
41903;SDS011;27586;51.124;4.182;2023-02-28T02:46:58;6.23;;;5.40;;
41903;SDS011;27586;51.124;4.182;2023-02-28T02:49:31;9.00;;;5.97;;
41903;SDS011;27586;51.124;4.182;2023-02-28T02:52:00;6.10;;;5.40;;
41903;SDS011;27586;51.124;4.182;2023-02-28T02:54:37;7.40;;;5.70;;
41903;SDS011;27586;51.124;4.182;2023-02-28T02:57:10;7.43;;;5.77;;
41903;SDS011;27586;51.124;4.182;2023-02-28T02:59:42;6.97;;;5.93;;
41903;SDS011;27586;51.124;4.182;2023-02-28T03:02:10;8.40;;;5.57;;
41903;SDS011;27586;51.124;4.182;2023-02-28T03:04:40;8.47;;;5.53;;
41903;SDS011;27586;51.124;4.182;2023-02-28T03:07:10;7.77;;;6.23;;
41903;SDS011;27586;51.124;4.182;2023-02-28T03:09:36;9.20;;;6.33;;
41903;SDS011;27586;51.124;4.182;2023-02-28T03:12:02;7.53;;;5.87;;
41903;SDS011;27586;51.124;4.182;2023-02-28T03:14:43;8.53;;;5.90;;
41903;SDS011;27586;51.124;4.182;2023-02-28T03:17:29;9.37;;;6.20;;
41903;SDS011;27586;51.124;4.182;2023-02-28T03:28:45;9.13;;;5.70;;
41903;SDS011;27586;51.124;4.182;2023-02-28T03:33:54;9.40;;;6.40;;
41903;SDS011;27586;51.124;4.182;2023-02-28T03:36:43;6.70;;;5.47;;
41903;SDS011;27586;51.124;4.182;2023-02-28T03:39:35;5.90;;;5.30;;
41903;SDS011;27586;51.124;4.182;2023-02-28T03:42:08;9.97;;;6.37;;
41903;SDS011;27586;51.124;4.182;2023-02-28T03:44:40;7.67;;;6.13;;
41903;SDS011;27586;51.124;4.182;2023-02-28T03:47:11;7.17;;;5.83;;
41903;SDS011;27586;51.124;4.182;2023-02-28T03:52:34;8.53;;;5.57;;
41903;SDS011;27586;51.124;4.182;2023-02-28T03:55:09;6.53;;;5.37;;
41903;SDS011;27586;51.124;4.182;2023-02-28T03:57:39;8.33;;;5.63;;
41903;SDS011;27586;51.124;4.182;2023-02-28T04:00:19;7.50;;;5.60;;
41903;SDS011;27586;51.124;4.182;2023-02-28T04:03:05;8.53;;;6.20;;
41903;SDS011;27586;51.124;4.182;2023-02-28T04:05:31;8.27;;;6.27;;
41903;SDS011;27586;51.124;4.182;2023-02-28T04:08:04;9.93;;;6.43;;
41903;SDS011;27586;51.124;4.182;2023-02-28T04:10:32;8.10;;;5.73;;
41903;SDS011;27586;51.124;4.182;2023-02-28T04:12:58;8.30;;;6.00;;
41903;SDS011;27586;51.124;4.182;2023-02-28T04:15:23;7.83;;;5.73;;
41903;SDS011;27586;51.124;4.182;2023-02-28T04:17:49;10.80;;;6.37;;
41903;SDS011;27586;51.124;4.182;2023-02-28T04:20:15;7.93;;;5.20;;
41903;SDS011;27586;51.124;4.182;2023-02-28T04:22:41;5.97;;;5.30;;
41903;SDS011;27586;51.124;4.182;2023-02-28T04:25:07;7.40;;;5.60;;
41903;SDS011;27586;51.124;4.182;2023-02-28T04:27:33;7.40;;;5.53;;
41903;SDS011;27586;51.124;4.182;2023-02-28T04:29:59;7.80;;;5.33;;
41903;SDS011;27586;51.124;4.182;2023-02-28T04:32:25;8.67;;;5.43;;
41903;SDS011;27586;51.124;4.182;2023-02-28T04:34:50;7.73;;;5.83;;
41903;SDS011;27586;51.124;4.182;2023-02-28T04:37:16;6.57;;;5.30;;
41903;SDS011;27586;51.124;4.182;2023-02-28T04:39:42;9.50;;;5.90;;
41903;SDS011;27586;51.124;4.182;2023-02-28T04:42:08;5.83;;;5.27;;
41903;SDS011;27586;51.124;4.182;2023-02-28T04:44:34;7.73;;;6.03;;
41903;SDS011;27586;51.124;4.182;2023-02-28T04:47:00;8.30;;;6.07;;
41903;SDS011;27586;51.124;4.182;2023-02-28T04:49:26;10.07;;;6.17;;
41903;SDS011;27586;51.124;4.182;2023-02-28T04:51:51;8.03;;;5.90;;
41903;SDS011;27586;51.124;4.182;2023-02-28T04:54:18;7.50;;;5.90;;
41903;SDS011;27586;51.124;4.182;2023-02-28T04:56:43;7.57;;;5.93;;
41903;SDS011;27586;51.124;4.182;2023-02-28T04:59:09;9.20;;;5.47;;
41903;SDS011;27586;51.124;4.182;2023-02-28T05:01:35;7.13;;;5.70;;
41903;SDS011;27586;51.124;4.182;2023-02-28T05:04:01;6.57;;;5.60;;
41903;SDS011;27586;51.124;4.182;2023-02-28T05:06:29;8.03;;;6.27;;
41903;SDS011;27586;51.124;4.182;2023-02-28T05:08:56;8.03;;;5.87;;
41903;SDS011;27586;51.124;4.182;2023-02-28T05:11:27;8.70;;;5.63;;
41903;SDS011;27586;51.124;4.182;2023-02-28T05:14:00;7.63;;;5.87;;
41903;SDS011;27586;51.124;4.182;2023-02-28T05:16:28;10.73;;;5.80;;
41903;SDS011;27586;51.124;4.182;2023-02-28T05:18:54;7.00;;;5.77;;
41903;SDS011;27586;51.124;4.182;2023-02-28T05:23:57;7.73;;;6.07;;
41903;SDS011;27586;51.124;4.182;2023-02-28T05:26:24;7.53;;;6.07;;
41903;SDS011;27586;51.124;4.182;2023-02-28T05:28:50;6.73;;;5.60;;
41903;SDS011;27586;51.124;4.182;2023-02-28T05:31:16;8.23;;;5.80;;
41903;SDS011;27586;51.124;4.182;2023-02-28T05:33:42;9.23;;;5.90;;
41903;SDS011;27586;51.124;4.182;2023-02-28T05:36:08;8.87;;;5.97;;
41903;SDS011;27586;51.124;4.182;2023-02-28T05:38:34;7.23;;;5.87;;
41903;SDS011;27586;51.124;4.182;2023-02-28T05:40:59;5.90;;;5.30;;
41903;SDS011;27586;51.124;4.182;2023-02-28T05:43:25;7.27;;;4.97;;
41903;SDS011;27586;51.124;4.182;2023-02-28T05:45:51;6.90;;;5.77;;
41903;SDS011;27586;51.124;4.182;2023-02-28T05:48:16;5.57;;;4.73;;
41903;SDS011;27586;51.124;4.182;2023-02-28T05:50:43;8.50;;;5.87;;
41903;SDS011;27586;51.124;4.182;2023-02-28T05:53:11;5.83;;;5.23;;
41903;SDS011;27586;51.124;4.182;2023-02-28T05:55:36;7.40;;;5.60;;
41903;SDS011;27586;51.124;4.182;2023-02-28T05:58:02;8.33;;;5.67;;
41903;SDS011;27586;51.124;4.182;2023-02-28T06:00:28;6.43;;;4.87;;
41903;SDS011;27586;51.124;4.182;2023-02-28T06:02:54;6.43;;;5.30;;
41903;SDS011;27586;51.124;4.182;2023-02-28T06:05:23;6.87;;;5.13;;
41903;SDS011;27586;51.124;4.182;2023-02-28T06:07:49;6.30;;;5.20;;
41903;SDS011;27586;51.124;4.182;2023-02-28T06:10:15;6.90;;;5.23;;
41903;SDS011;27586;51.124;4.182;2023-02-28T06:12:41;7.47;;;5.03;;
41903;SDS011;27586;51.124;4.182;2023-02-28T06:15:07;9.83;;;5.43;;
41903;SDS011;27586;51.124;4.182;2023-02-28T06:17:42;8.90;;;5.97;;
41903;SDS011;27586;51.124;4.182;2023-02-28T06:20:09;8.70;;;5.87;;
41903;SDS011;27586;51.124;4.182;2023-02-28T06:22:37;9.77;;;5.33;;
41903;SDS011;27586;51.124;4.182;2023-02-28T06:25:04;14.50;;;6.37;;
41903;SDS011;27586;51.124;4.182;2023-02-28T06:27:31;10.17;;;5.10;;
41903;SDS011;27586;51.124;4.182;2023-02-28T06:29:57;7.70;;;5.37;;
41903;SDS011;27586;51.124;4.182;2023-02-28T06:32:23;9.37;;;5.30;;
41903;SDS011;27586;51.124;4.182;2023-02-28T06:34:49;7.47;;;5.47;;
41903;SDS011;27586;51.124;4.182;2023-02-28T06:37:15;8.00;;;5.23;;
41903;SDS011;27586;51.124;4.182;2023-02-28T06:39:42;8.27;;;5.10;;
41903;SDS011;27586;51.124;4.182;2023-02-28T06:42:08;7.27;;;5.00;;
41903;SDS011;27586;51.124;4.182;2023-02-28T06:44:33;7.47;;;5.20;;
41903;SDS011;27586;51.124;4.182;2023-02-28T06:47:03;7.17;;;4.50;;
41903;SDS011;27586;51.124;4.182;2023-02-28T06:49:30;12.23;;;5.00;;
41903;SDS011;27586;51.124;4.182;2023-02-28T06:51:57;8.10;;;5.00;;
41903;SDS011;27586;51.124;4.182;2023-02-28T06:54:23;10.53;;;5.27;;
41903;SDS011;27586;51.124;4.182;2023-02-28T06:56:49;9.27;;;5.00;;
41903;SDS011;27586;51.124;4.182;2023-02-28T06:59:14;8.70;;;5.80;;
41903;SDS011;27586;51.124;4.182;2023-02-28T07:01:41;9.10;;;6.20;;
41903;SDS011;27586;51.124;4.182;2023-02-28T07:04:06;8.17;;;5.97;;
41903;SDS011;27586;51.124;4.182;2023-02-28T07:06:32;8.63;;;6.43;;
41903;SDS011;27586;51.124;4.182;2023-02-28T07:08:58;9.57;;;6.47;;
41903;SDS011;27586;51.124;4.182;2023-02-28T07:11:25;10.23;;;5.40;;
41903;SDS011;27586;51.124;4.182;2023-02-28T07:13:55;8.07;;;6.10;;
41903;SDS011;27586;51.124;4.182;2023-02-28T07:16:22;8.07;;;5.87;;
41903;SDS011;27586;51.124;4.182;2023-02-28T07:18:48;9.17;;;5.67;;
41903;SDS011;27586;51.124;4.182;2023-02-28T07:21:15;9.90;;;5.63;;
41903;SDS011;27586;51.124;4.182;2023-02-28T07:23:41;8.33;;;5.83;;
41903;SDS011;27586;51.124;4.182;2023-02-28T07:26:12;8.57;;;5.73;;
41903;SDS011;27586;51.124;4.182;2023-02-28T07:28:43;8.90;;;6.40;;
41903;SDS011;27586;51.124;4.182;2023-02-28T07:31:11;10.30;;;5.63;;
41903;SDS011;27586;51.124;4.182;2023-02-28T07:33:38;8.83;;;6.00;;
41903;SDS011;27586;51.124;4.182;2023-02-28T07:36:09;7.67;;;5.53;;
41903;SDS011;27586;51.124;4.182;2023-02-28T07:38:41;7.73;;;5.80;;
41903;SDS011;27586;51.124;4.182;2023-02-28T07:41:08;8.43;;;5.27;;
41903;SDS011;27586;51.124;4.182;2023-02-28T07:43:35;7.40;;;5.03;;
41903;SDS011;27586;51.124;4.182;2023-02-28T07:46:11;8.83;;;6.00;;
41903;SDS011;27586;51.124;4.182;2023-02-28T07:48:40;8.97;;;5.20;;
41903;SDS011;27586;51.124;4.182;2023-02-28T07:51:07;8.20;;;5.63;;
41903;SDS011;27586;51.124;4.182;2023-02-28T07:53:32;7.63;;;5.50;;
41903;SDS011;27586;51.124;4.182;2023-02-28T07:55:59;7.67;;;5.33;;
41903;SDS011;27586;51.124;4.182;2023-02-28T07:58:25;7.77;;;4.60;;
41903;SDS011;27586;51.124;4.182;2023-02-28T08:00:52;7.77;;;4.77;;
41903;SDS011;27586;51.124;4.182;2023-02-28T08:03:18;7.93;;;5.60;;
41903;SDS011;27586;51.124;4.182;2023-02-28T08:05:46;8.60;;;5.30;;
41903;SDS011;27586;51.124;4.182;2023-02-28T08:08:13;7.17;;;5.30;;
41903;SDS011;27586;51.124;4.182;2023-02-28T08:10:39;5.80;;;4.40;;
41903;SDS011;27586;51.124;4.182;2023-02-28T08:13:05;8.00;;;5.03;;
41903;SDS011;27586;51.124;4.182;2023-02-28T08:15:30;7.93;;;5.27;;
41903;SDS011;27586;51.124;4.182;2023-02-28T08:17:56;9.67;;;5.10;;
41903;SDS011;27586;51.124;4.182;2023-02-28T08:20:22;8.70;;;5.13;;
41903;SDS011;27586;51.124;4.182;2023-02-28T08:22:50;8.20;;;5.13;;
41903;SDS011;27586;51.124;4.182;2023-02-28T08:25:15;6.80;;;5.23;;
41903;SDS011;27586;51.124;4.182;2023-02-28T08:27:41;7.83;;;5.00;;
41903;SDS011;27586;51.124;4.182;2023-02-28T08:30:08;8.17;;;5.07;;
41903;SDS011;27586;51.124;4.182;2023-02-28T08:32:39;11.00;;;6.50;;
41903;SDS011;27586;51.124;4.182;2023-02-28T08:35:04;12.63;;;7.73;;
41903;SDS011;27586;51.124;4.182;2023-02-28T08:37:30;16.37;;;9.67;;
41903;SDS011;27586;51.124;4.182;2023-02-28T08:39:56;8.47;;;5.33;;
41903;SDS011;27586;51.124;4.182;2023-02-28T08:42:22;6.70;;;5.10;;
41903;SDS011;27586;51.124;4.182;2023-02-28T08:44:48;4.87;;;4.37;;
41903;SDS011;27586;51.124;4.182;2023-02-28T08:47:14;6.23;;;4.13;;
41903;SDS011;27586;51.124;4.182;2023-02-28T08:49:40;4.37;;;3.30;;
41903;SDS011;27586;51.124;4.182;2023-02-28T08:52:05;4.87;;;3.53;;
41903;SDS011;27586;51.124;4.182;2023-02-28T08:54:31;3.27;;;2.60;;
41903;SDS011;27586;51.124;4.182;2023-02-28T08:56:58;4.63;;;2.30;;
41903;SDS011;27586;51.124;4.182;2023-02-28T08:59:23;4.32;;;2.10;;
41903;SDS011;27586;51.124;4.182;2023-02-28T09:01:49;2.10;;;1.90;;
41903;SDS011;27586;51.124;4.182;2023-02-28T09:04:15;2.25;;;2.05;;
41903;SDS011;27586;51.124;4.182;2023-02-28T09:06:41;3.75;;;2.13;;
41903;SDS011;27586;51.124;4.182;2023-02-28T09:09:06;2.40;;;2.20;;
41903;SDS011;27586;51.124;4.182;2023-02-28T09:11:33;3.85;;;1.98;;
41903;SDS011;27586;51.124;4.182;2023-02-28T09:14:00;2.80;;;1.87;;
41903;SDS011;27586;51.124;4.182;2023-02-28T09:16:28;2.95;;;1.92;;
41903;SDS011;27586;51.124;4.182;2023-02-28T09:18:54;2.20;;;1.33;;
41903;SDS011;27586;51.124;4.182;2023-02-28T09:21:20;2.63;;;1.58;;
41903;SDS011;27586;51.124;4.182;2023-02-28T09:23:46;4.63;;;1.75;;
41903;SDS011;27586;51.124;4.182;2023-02-28T09:26:15;2.33;;;1.63;;
41903;SDS011;27586;51.124;4.182;2023-02-28T09:28:42;1.73;;;1.40;;
41903;SDS011;27586;51.124;4.182;2023-02-28T09:31:12;3.17;;;1.73;;
41903;SDS011;27586;51.124;4.182;2023-02-28T09:33:45;1.98;;;1.65;;
41903;SDS011;27586;51.124;4.182;2023-02-28T09:36:12;1.73;;;1.60;;
41903;SDS011;27586;51.124;4.182;2023-02-28T09:38:37;2.20;;;1.90;;
41903;SDS011;27586;51.124;4.182;2023-02-28T09:41:08;2.25;;;1.70;;
41903;SDS011;27586;51.124;4.182;2023-02-28T09:43:40;1.98;;;1.77;;
41903;SDS011;27586;51.124;4.182;2023-02-28T09:46:20;3.25;;;2.10;;
41903;SDS011;27586;51.124;4.182;2023-02-28T09:49:16;4.88;;;2.38;;
41903;SDS011;27586;51.124;4.182;2023-02-28T09:51:55;3.58;;;1.90;;
41903;SDS011;27586;51.124;4.182;2023-02-28T09:54:24;4.80;;;2.33;;
41903;SDS011;27586;51.124;4.182;2023-02-28T10:02:19;3.10;;;2.40;;
41903;SDS011;27586;51.124;4.182;2023-02-28T10:04:59;2.40;;;2.20;;
41903;SDS011;27586;51.124;4.182;2023-02-28T10:10:51;3.05;;;2.58;;
41903;SDS011;27586;51.124;4.182;2023-02-28T10:15:54;3.63;;;3.03;;
41903;SDS011;27586;51.124;4.182;2023-02-28T10:18:27;2.58;;;2.08;;
41903;SDS011;27586;51.124;4.182;2023-02-28T10:21:21;4.18;;;2.60;;
41903;SDS011;27586;51.124;4.182;2023-02-28T10:23:55;3.63;;;2.10;;
41903;SDS011;27586;51.124;4.182;2023-02-28T10:26:27;2.45;;;1.90;;
41903;SDS011;27586;51.124;4.182;2023-02-28T10:28:55;2.97;;;2.08;;
41903;SDS011;27586;51.124;4.182;2023-02-28T10:31:20;3.38;;;2.30;;
41903;SDS011;27586;51.124;4.182;2023-02-28T10:33:46;2.70;;;1.75;;
41903;SDS011;27586;51.124;4.182;2023-02-28T10:36:16;2.28;;;1.75;;
41903;SDS011;27586;51.124;4.182;2023-02-28T10:38:44;2.15;;;1.90;;
41903;SDS011;27586;51.124;4.182;2023-02-28T10:43:41;2.28;;;1.80;;
41903;SDS011;27586;51.124;4.182;2023-02-28T10:48:39;1.90;;;1.65;;
41903;SDS011;27586;51.124;4.182;2023-02-28T10:51:08;2.22;;;1.80;;
41903;SDS011;27586;51.124;4.182;2023-02-28T10:53:49;1.88;;;1.73;;
41903;SDS011;27586;51.124;4.182;2023-02-28T10:56:17;2.28;;;1.73;;
41903;SDS011;27586;51.124;4.182;2023-02-28T10:58:52;3.20;;;2.42;;
41903;SDS011;27586;51.124;4.182;2023-02-28T11:01:42;2.20;;;1.90;;
41903;SDS011;27586;51.124;4.182;2023-02-28T11:04:19;1.75;;;1.58;;
41903;SDS011;27586;51.124;4.182;2023-02-28T11:09:46;1.90;;;1.70;;
41903;SDS011;27586;51.124;4.182;2023-02-28T11:12:36;1.55;;;1.45;;
41903;SDS011;27586;51.124;4.182;2023-02-28T11:15:05;1.52;;;1.40;;
41903;SDS011;27586;51.124;4.182;2023-02-28T11:17:53;2.35;;;1.70;;
41903;SDS011;27586;51.124;4.182;2023-02-28T11:20:23;4.57;;;1.73;;
41903;SDS011;27586;51.124;4.182;2023-02-28T11:22:51;1.65;;;1.55;;
41903;SDS011;27586;51.124;4.182;2023-02-28T11:25:30;2.83;;;1.65;;
41903;SDS011;27586;51.124;4.182;2023-02-28T11:27:58;1.80;;;1.58;;
41903;SDS011;27586;51.124;4.182;2023-02-28T11:30:35;2.40;;;1.80;;
41903;SDS011;27586;51.124;4.182;2023-02-28T11:35:49;2.38;;;1.42;;
41903;SDS011;27586;51.124;4.182;2023-02-28T11:38:16;1.90;;;1.38;;
41903;SDS011;27586;51.124;4.182;2023-02-28T11:40:43;2.47;;;1.55;;
41903;SDS011;27586;51.124;4.182;2023-02-28T11:43:21;2.30;;;1.42;;
41903;SDS011;27586;51.124;4.182;2023-02-28T11:46:00;1.60;;;1.50;;
41903;SDS011;27586;51.124;4.182;2023-02-28T11:48:32;2.28;;;1.50;;
41903;SDS011;27586;51.124;4.182;2023-02-28T11:51:22;1.85;;;1.45;;
41903;SDS011;27586;51.124;4.182;2023-02-28T11:54:08;1.60;;;1.50;;
41903;SDS011;27586;51.124;4.182;2023-02-28T11:57:00;1.40;;;1.30;;
41903;SDS011;27586;51.124;4.182;2023-02-28T12:05:29;1.77;;;1.48;;
41903;SDS011;27586;51.124;4.182;2023-02-28T12:08:23;1.70;;;1.50;;
41903;SDS011;27586;51.124;4.182;2023-02-28T12:11:29;1.40;;;1.30;;
41903;SDS011;27586;51.124;4.182;2023-02-28T12:17:25;3.95;;;1.83;;
41903;SDS011;27586;51.124;4.182;2023-02-28T12:28:53;1.75;;;1.65;;
41903;SDS011;27586;51.124;4.182;2023-02-28T12:34:43;3.90;;;2.53;;
41903;SDS011;27586;51.124;4.182;2023-02-28T12:37:23;5.88;;;4.30;;
41903;SDS011;27586;51.124;4.182;2023-02-28T12:40:04;3.50;;;2.47;;
41903;SDS011;27586;51.124;4.182;2023-02-28T12:42:39;7.05;;;4.10;;
41903;SDS011;27586;51.124;4.182;2023-02-28T12:45:18;12.48;;;6.97;;
41903;SDS011;27586;51.124;4.182;2023-02-28T12:47:45;10.85;;;5.68;;
41903;SDS011;27586;51.124;4.182;2023-02-28T12:50:17;26.50;;;12.15;;
41903;SDS011;27586;51.124;4.182;2023-02-28T12:52:54;19.60;;;10.52;;
41903;SDS011;27586;51.124;4.182;2023-02-28T12:55:31;4.90;;;2.65;;
41903;SDS011;27586;51.124;4.182;2023-02-28T12:58:19;2.67;;;1.50;;
41903;SDS011;27586;51.124;4.182;2023-02-28T13:01:00;2.35;;;1.50;;
41903;SDS011;27586;51.124;4.182;2023-02-28T13:06:28;1.60;;;1.50;;
41903;SDS011;27586;51.124;4.182;2023-02-28T13:09:16;3.05;;;1.50;;
41903;SDS011;27586;51.124;4.182;2023-02-28T13:11:46;2.88;;;1.90;;
41903;SDS011;27586;51.124;4.182;2023-02-28T13:14:21;4.18;;;1.80;;
41903;SDS011;27586;51.124;4.182;2023-02-28T13:16:58;2.13;;;1.92;;
41903;SDS011;27586;51.124;4.182;2023-02-28T13:28:00;3.25;;;1.85;;
41903;SDS011;27586;51.124;4.182;2023-02-28T13:33:27;1.92;;;1.83;;
41903;SDS011;27586;51.124;4.182;2023-02-28T13:38:39;2.45;;;1.95;;
41903;SDS011;27586;51.124;4.182;2023-02-28T13:44:04;3.97;;;2.28;;
41903;SDS011;27586;51.124;4.182;2023-02-28T14:08:45;2.70;;;2.38;;
41903;SDS011;27586;51.124;4.182;2023-02-28T14:11:26;2.30;;;2.10;;
41903;SDS011;27586;51.124;4.182;2023-02-28T14:13:56;2.60;;;2.30;;
41903;SDS011;27586;51.124;4.182;2023-02-28T14:16:26;2.60;;;2.20;;
41903;SDS011;27586;51.124;4.182;2023-02-28T14:25:10;2.72;;;2.28;;
41903;SDS011;27586;51.124;4.182;2023-02-28T14:27:38;2.85;;;2.30;;
41903;SDS011;27586;51.124;4.182;2023-02-28T14:31:06;3.35;;;2.10;;
41903;SDS011;27586;51.124;4.182;2023-02-28T14:33:23;2.30;;;2.10;;
41903;SDS011;27586;51.124;4.182;2023-02-28T14:35:57;3.47;;;2.33;;
41903;SDS011;27586;51.124;4.182;2023-02-28T14:41:51;2.47;;;2.17;;
41903;SDS011;27586;51.124;4.182;2023-02-28T14:44:20;2.55;;;2.30;;
41903;SDS011;27586;51.124;4.182;2023-02-28T14:46:55;2.95;;;2.55;;
41903;SDS011;27586;51.124;4.182;2023-02-28T14:49:30;3.17;;;2.17;;
41903;SDS011;27586;51.124;4.182;2023-02-28T14:54:42;6.07;;;4.75;;
41903;SDS011;27586;51.124;4.182;2023-02-28T14:57:26;3.20;;;2.72;;
41903;SDS011;27586;51.124;4.182;2023-02-28T15:00:00;2.88;;;2.13;;
41903;SDS011;27586;51.124;4.182;2023-02-28T15:02:31;5.10;;;3.42;;
41903;SDS011;27586;51.124;4.182;2023-02-28T15:05:01;4.68;;;3.08;;
41903;SDS011;27586;51.124;4.182;2023-02-28T15:07:46;8.00;;;6.43;;
41903;SDS011;27586;51.124;4.182;2023-02-28T15:10:25;4.15;;;2.90;;
41903;SDS011;27586;51.124;4.182;2023-02-28T15:12:56;7.10;;;5.97;;
41903;SDS011;27586;51.124;4.182;2023-02-28T15:15:22;5.28;;;4.45;;
41903;SDS011;27586;51.124;4.182;2023-02-28T15:17:52;3.33;;;2.55;;
41903;SDS011;27586;51.124;4.182;2023-02-28T15:20:21;4.68;;;4.22;;
41903;SDS011;27586;51.124;4.182;2023-02-28T15:22:49;3.95;;;3.33;;
41903;SDS011;27586;51.124;4.182;2023-02-28T15:25:18;3.45;;;2.90;;
41903;SDS011;27586;51.124;4.182;2023-02-28T15:27:50;14.20;;;9.35;;
41903;SDS011;27586;51.124;4.182;2023-02-28T15:30:22;8.90;;;7.10;;
41903;SDS011;27586;51.124;4.182;2023-02-28T15:33:03;3.22;;;2.75;;
41903;SDS011;27586;51.124;4.182;2023-02-28T15:35:41;2.80;;;2.60;;
41903;SDS011;27586;51.124;4.182;2023-02-28T15:45:56;3.60;;;3.05;;
41903;SDS011;27586;51.124;4.182;2023-02-28T15:50:54;3.75;;;2.60;;
41903;SDS011;27586;51.124;4.182;2023-02-28T15:53:27;3.65;;;2.60;;
41903;SDS011;27586;51.124;4.182;2023-02-28T15:56:00;3.10;;;2.33;;
41903;SDS011;27586;51.124;4.182;2023-02-28T15:58:28;3.90;;;2.90;;
41903;SDS011;27586;51.124;4.182;2023-02-28T16:01:05;4.10;;;3.17;;
41903;SDS011;27586;51.124;4.182;2023-02-28T16:03:39;3.97;;;2.65;;
41903;SDS011;27586;51.124;4.182;2023-02-28T16:08:52;3.83;;;2.67;;
41903;SDS011;27586;51.124;4.182;2023-02-28T16:11:18;4.40;;;2.97;;
41903;SDS011;27586;51.124;4.182;2023-02-28T16:13:45;2.88;;;2.60;;
41903;SDS011;27586;51.124;4.182;2023-02-28T16:16:15;6.38;;;2.90;;
41903;SDS011;27586;51.124;4.182;2023-02-28T16:18:45;3.45;;;2.80;;
41903;SDS011;27586;51.124;4.182;2023-02-28T16:21:11;3.63;;;2.88;;
41903;SDS011;27586;51.124;4.182;2023-02-28T16:23:36;6.22;;;5.20;;
41903;SDS011;27586;51.124;4.182;2023-02-28T16:26:03;6.55;;;2.83;;
41903;SDS011;27586;51.124;4.182;2023-02-28T16:28:30;4.78;;;3.42;;
41903;SDS011;27586;51.124;4.182;2023-02-28T16:31:05;3.03;;;2.72;;
41903;SDS011;27586;51.124;4.182;2023-02-28T16:33:32;4.22;;;3.08;;
41903;SDS011;27586;51.124;4.182;2023-02-28T16:35:58;4.18;;;2.72;;
41903;SDS011;27586;51.124;4.182;2023-02-28T16:38:24;3.47;;;2.90;;
41903;SDS011;27586;51.124;4.182;2023-02-28T16:40:51;5.15;;;3.53;;
41903;SDS011;27586;51.124;4.182;2023-02-28T16:43:19;4.53;;;3.42;;
41903;SDS011;27586;51.124;4.182;2023-02-28T16:45:48;6.05;;;3.95;;
41903;SDS011;27586;51.124;4.182;2023-02-28T16:48:19;5.03;;;2.88;;
41903;SDS011;27586;51.124;4.182;2023-02-28T16:50:44;3.83;;;2.88;;
41903;SDS011;27586;51.124;4.182;2023-02-28T16:53:10;4.45;;;2.88;;
41903;SDS011;27586;51.124;4.182;2023-02-28T16:55:36;7.93;;;3.92;;
41903;SDS011;27586;51.124;4.182;2023-02-28T16:58:02;3.53;;;2.88;;
41903;SDS011;27586;51.124;4.182;2023-02-28T17:00:31;3.90;;;2.80;;
41903;SDS011;27586;51.124;4.182;2023-02-28T17:02:58;3.47;;;2.95;;
41903;SDS011;27586;51.124;4.182;2023-02-28T17:05:24;3.22;;;2.70;;
41903;SDS011;27586;51.124;4.182;2023-02-28T17:07:53;9.25;;;5.93;;
41903;SDS011;27586;51.124;4.182;2023-02-28T17:10:20;5.28;;;3.40;;
41903;SDS011;27586;51.124;4.182;2023-02-28T17:12:50;3.53;;;3.22;;
41903;SDS011;27586;51.124;4.182;2023-02-28T17:15:17;4.78;;;4.13;;
41903;SDS011;27586;51.124;4.182;2023-02-28T17:17:44;5.50;;;3.85;;
41903;SDS011;27586;51.124;4.182;2023-02-28T17:20:15;6.43;;;5.03;;
41903;SDS011;27586;51.124;4.182;2023-02-28T17:22:43;7.45;;;5.22;;
41903;SDS011;27586;51.124;4.182;2023-02-28T17:25:09;6.38;;;4.07;;
41903;SDS011;27586;51.124;4.182;2023-02-28T17:27:35;6.00;;;4.03;;
41903;SDS011;27586;51.124;4.182;2023-02-28T17:30:03;6.53;;;4.80;;
41903;SDS011;27586;51.124;4.182;2023-02-28T17:32:35;8.23;;;4.45;;
41903;SDS011;27586;51.124;4.182;2023-02-28T17:35:00;6.20;;;3.42;;
41903;SDS011;27586;51.124;4.182;2023-02-28T17:37:26;5.45;;;3.95;;
41903;SDS011;27586;51.124;4.182;2023-02-28T17:39:51;5.57;;;3.70;;
41903;SDS011;27586;51.124;4.182;2023-02-28T17:42:17;7.60;;;4.72;;